TimeEDT,TemperatureF,Dew PointF,Humidity,Sea Level PressureIn,VisibilityMPH,Wind Direction,Wind SpeedMPH,Gust SpeedMPH,PrecipitationIn,Events,Conditions,WindDirDegrees,DateUTC
12:15 AM,65.3,48.9,55,30.04,10.0,Calm,Calm,-,N/A,,Clear,0,2013-04-11 04:15:00
12:35 AM,64.8,48.7,56,30.04,10.0,Calm,Calm,-,N/A,,Clear,0,2013-04-11 04:35:00
1:15 AM,63.9,49.5,59,30.04,10.0,Calm,Calm,-,N/A,,Clear,0,2013-04-11 05:15:00
1:35 AM,63.0,49.8,62,30.04,10.0,Calm,Calm,-,N/A,,Clear,0,2013-04-11 05:35:00
1:55 AM,62.8,50.0,63,30.03,10.0,Calm,Calm,-,N/A,,Clear,0,2013-04-11 05:55:00
2:15 AM,62.4,50.0,64,30.02,10.0,Calm,Calm,-,N/A,,Clear,0,2013-04-11 06:15:00
2:35 AM,61.5,50.0,66,30.02,10.0,Calm,Calm,-,N/A,,Clear,0,2013-04-11 06:35:00
2:55 AM,61.3,49.8,66,30.01,10.0,Calm,Calm,-,N/A,,Clear,0,2013-04-11 06:55:00
3:15 AM,61.2,50.0,67,30.01,10.0,Calm,Calm,-,N/A,,Clear,0,2013-04-11 07:15:00
3:35 AM,59.4,49.8,71,29.99,10.0,Calm,Calm,-,N/A,,Clear,0,2013-04-11 07:35:00
3:55 AM,59.2,49.8,71,29.99,10.0,Calm,Calm,-,N/A,,Clear,0,2013-04-11 07:55:00
4:15 AM,56.3,49.6,78,29.98,10.0,SSE,3.5,-,N/A,,Clear,160,2013-04-11 08:15:00
4:35 AM,55.8,49.6,80,29.98,10.0,Calm,Calm,-,N/A,,Clear,0,2013-04-11 08:35:00
4:55 AM,55.6,49.1,79,29.98,10.0,SSE,4.6,-,N/A,,Clear,150,2013-04-11 08:55:00
5:15 AM,54.5,49.1,82,29.98,10.0,SSE,4.6,-,N/A,,Clear,150,2013-04-11 09:15:00
5:35 AM,56.1,49.1,77,29.97,10.0,SE,3.5,-,N/A,,Clear,130,2013-04-11 09:35:00
5:55 AM,57.0,49.3,75,29.98,10.0,Calm,Calm,-,N/A,,Clear,0,2013-04-11 09:55:00
6:15 AM,57.0,49.3,75,29.98,10.0,East,3.5,-,N/A,,Clear,100,2013-04-11 10:15:00
6:35 AM,56.7,49.5,77,29.98,10.0,SE,3.5,-,N/A,,Clear,130,2013-04-11 10:35:00
7:15 AM,56.3,49.1,77,29.99,10.0,Calm,Calm,-,N/A,,Clear,0,2013-04-11 11:15:00
7:35 AM,57.0,48.7,74,30.00,10.0,Calm,Calm,-,N/A,,Clear,0,2013-04-11 11:35:00
7:55 AM,57.4,49.1,74,30.00,10.0,Calm,Calm,-,N/A,,Clear,0,2013-04-11 11:55:00
8:15 AM,57.6,49.1,73,30.00,10.0,Calm,Calm,-,N/A,,Clear,0,2013-04-11 12:15:00
8:35 AM,58.5,49.3,72,30.01,10.0,Calm,Calm,-,N/A,,Clear,0,2013-04-11 12:35:00
8:55 AM,59.2,50.4,73,30.01,10.0,Calm,Calm,-,N/A,,Clear,0,2013-04-11 12:55:00
9:15 AM,60.3,49.8,68,30.01,10.0,East,4.6,-,N/A,,Clear,100,2013-04-11 13:15:00
9:35 AM,61.3,50.4,67,30.00,10.0,ESE,5.8,-,N/A,,Clear,110,2013-04-11 13:35:00
9:55 AM,62.6,50.2,64,30.00,10.0,East,4.6,-,N/A,,Clear,90,2013-04-11 13:55:00
10:15 AM,66.4,48.0,52,29.99,10.0,SSE,5.8,-,N/A,,Clear,160,2013-04-11 14:15:00
10:35 AM,68.7,45.9,44,29.98,10.0,South,8.1,-,N/A,,Clear,190,2013-04-11 14:35:00
10:55 AM,69.4,45.3,42,29.98,10.0,SSE,6.9,-,N/A,,Clear,160,2013-04-11 14:55:00
11:15 AM,70.2,44.4,40,29.98,10.0,SSE,8.1,-,N/A,,Clear,150,2013-04-11 15:15:00
11:35 AM,69.6,46.2,43,29.98,10.0,SSE,8.1,-,N/A,,Clear,150,2013-04-11 15:35:00
11:55 AM,67.5,47.7,49,29.98,10.0,SSE,6.9,-,N/A,,Clear,160,2013-04-11 15:55:00
12:15 PM,68.7,48.0,48,29.97,10.0,SSE,4.6,-,N/A,,Clear,150,2013-04-11 16:15:00
12:35 PM,70.9,49.6,47,29.97,10.0,SSE,8.1,-,N/A,,Clear,160,2013-04-11 16:35:00
12:55 PM,70.0,46.9,44,29.96,10.0,South,10.4,16.1,N/A,,Clear,170,2013-04-11 16:55:00
1:15 PM,70.7,47.5,44,29.96,10.0,SSE,6.9,17.3,N/A,,Clear,160,2013-04-11 17:15:00
1:35 PM,69.3,47.1,45,29.95,10.0,SSE,4.6,-,N/A,,Clear,150,2013-04-11 17:35:00
1:55 PM,69.4,47.7,46,29.94,10.0,SSE,8.1,16.1,N/A,,Clear,160,2013-04-11 17:55:00
2:15 PM,70.3,48.0,45,29.93,10.0,South,11.5,18.4,N/A,,Clear,170,2013-04-11 18:15:00
2:35 PM,71.6,48.7,44,29.93,10.0,SE,5.8,16.1,N/A,,Scattered Clouds,140,2013-04-11 18:35:00
2:55 PM,72.7,48.0,42,29.91,10.0,South,8.1,17.3,N/A,,Scattered Clouds,180,2013-04-11 18:55:00
3:15 PM,72.1,46.6,40,29.90,10.0,South,6.9,20.7,N/A,,Scattered Clouds,190,2013-04-11 19:15:00
3:35 PM,71.6,46.6,41,29.90,10.0,SSE,6.9,18.4,N/A,,Mostly Cloudy,150,2013-04-11 19:35:00
3:55 PM,72.3,46.6,40,29.89,10.0,SSE,6.9,18.4,N/A,,Mostly Cloudy,160,2013-04-11 19:55:00
4:15 PM,70.2,45.7,41,29.88,10.0,SSE,9.2,19.6,N/A,,Scattered Clouds,160,2013-04-11 20:15:00
4:35 PM,70.3,45.9,41,29.87,10.0,SSE,8.1,24.2,N/A,,Scattered Clouds,150,2013-04-11 20:35:00
4:55 PM,70.0,45.7,42,29.86,10.0,South,9.2,16.1,N/A,,Mostly Cloudy,170,2013-04-11 20:55:00
5:15 PM,70.2,46.0,42,29.86,10.0,SSE,4.6,17.3,N/A,,Mostly Cloudy,160,2013-04-11 21:15:00
5:35 PM,69.6,46.9,44,29.86,10.0,South,4.6,-,N/A,,Scattered Clouds,180,2013-04-11 21:35:00
5:55 PM,68.9,47.1,46,29.86,10.0,SSE,6.9,18.4,N/A,,Clear,160,2013-04-11 21:55:00
6:15 PM,69.4,47.1,45,29.86,10.0,SSE,5.8,-,N/A,,Mostly Cloudy,160,2013-04-11 22:15:00
6:35 PM,68.2,46.9,47,29.86,10.0,SSE,4.6,-,N/A,,Overcast,160,2013-04-11 22:35:00
6:55 PM,68.0,47.3,47,29.86,10.0,SSE,6.9,-,N/A,,Overcast,160,2013-04-11 22:55:00
7:15 PM,67.5,48.0,50,29.86,10.0,SSE,5.8,-,N/A,,Overcast,160,2013-04-11 23:15:00
7:35 PM,66.7,48.6,52,29.85,10.0,SSE,3.5,-,N/A,,Mostly Cloudy,150,2013-04-11 23:35:00
7:55 PM,66.2,48.7,53,29.84,10.0,SSE,6.9,-,N/A,,Overcast,160,2013-04-11 23:55:00
8:15 PM,66.2,49.1,54,29.84,10.0,SSE,4.6,-,N/A,,Overcast,150,2013-04-12 00:15:00
8:35 PM,65.8,50.7,58,29.84,10.0,SE,6.9,-,N/A,,Overcast,140,2013-04-12 00:35:00
8:55 PM,64.4,53.8,68,29.84,10.0,SE,5.8,-,N/A,Rain,Light Rain,140,2013-04-12 00:55:00
9:15 PM,61.9,55.6,80,29.83,10.0,Calm,Calm,-,N/A,Rain,Rain,0,2013-04-12 01:15:00
9:35 PM,61.7,55.8,81,29.82,10.0,SSE,5.8,-,N/A,,Overcast,150,2013-04-12 01:35:00
9:55 PM,61.3,56.7,85,29.82,10.0,SSE,3.5,-,N/A,Rain,Light Rain,150,2013-04-12 01:55:00
10:15 PM,60.8,57.4,88,29.82,10.0,SSE,3.5,-,0.02,Rain,Light Rain,150,2013-04-12 02:15:00
10:35 PM,60.4,57.7,91,29.81,3.0,SSE,5.8,-,0.07,Rain,Light Rain,150,2013-04-12 02:35:00
10:55 PM,60.8,57.9,90,29.80,7.0,SSE,5.8,-,0.07,Rain,Light Rain,160,2013-04-12 02:55:00
11:15 PM,60.8,58.1,91,29.80,4.0,SSE,4.6,-,0.03,Rain,Rain,160,2013-04-12 03:15:00
11:35 PM,60.8,58.3,91,29.79,5.0,SSE,6.9,-,0.04,Rain,Rain,150,2013-04-12 03:35:00
11:55 PM,60.3,58.1,93,29.78,2.5,SE,5.8,17.3,0.10,Rain,Heavy Rain,140,2013-04-12 03:55:00